Time;durP1;ratioP1;P1;durP2;ratioP2;P2;SDS_P1;SDS_P2;PMS_P1;PMS_P2;Temp;Humidity;BMP_temperature;BMP_pressure;BME280_temperature;BME280_humidity;BME280_pressure;Samples;Min_cycle;Max_cycle;Signal;HPM_P1;HPM_P2
2021/12/23 00:01:43;;;;;;;9.13;6.25;;;-0.70;99.90;;;;;;5031688;28;20080;-76
2021/12/23 00:04:10;;;;;;;3.65;3.03;;;-0.70;99.90;;;;;;5037070;28;20047;-77
2021/12/23 00:06:38;;;;;;;1.60;1.40;;;-0.60;99.90;;;;;;5022546;28;20453;-77
2021/12/23 00:09:05;;;;;;;4.00;3.15;;;-0.60;99.90;;;;;;5021120;28;20049;-76
2021/12/23 00:11:32;;;;;;;6.40;4.13;;;-0.60;99.90;;;;;;5037539;28;20045;-76
2021/12/23 00:14:02;;;;;;;5.70;2.65;;;-0.60;99.90;;;;;;5043707;28;20429;-77
2021/12/23 00:16:49;;;;;;;5.72;4.45;;;-0.50;99.90;;;;;;5038623;28;20072;-76
2021/12/23 00:24:39;;;;;;;3.97;2.80;;;-0.50;99.90;;;;;;5035579;28;20061;-76
2021/12/23 00:27:06;;;;;;;4.60;2.00;;;-0.50;99.90;;;;;;5025770;28;21236;-76
2021/12/23 00:29:32;;;;;;;4.13;2.72;;;-0.50;99.90;;;;;;5068544;28;20051;-76
2021/12/23 00:31:58;;;;;;;21.65;1.27;;;-0.50;99.90;;;;;;5044525;28;20049;-76
2021/12/23 00:34:24;;;;;;;3.53;2.22;;;-0.50;99.90;;;;;;5027185;28;20501;-77
2021/12/23 00:36:51;;;;;;;5.10;3.72;;;-0.50;99.90;;;;;;5045875;28;20640;-77
2021/12/23 00:39:17;;;;;;;5.15;3.35;;;-0.40;99.90;;;;;;5028460;28;20051;-77
2021/12/23 00:41:44;;;;;;;8.43;4.80;;;-0.40;99.90;;;;;;5038407;28;20061;-77
2021/12/23 00:44:13;;;;;;;4.65;3.40;;;-0.40;99.90;;;;;;5022224;28;20124;-77
2021/12/23 00:46:39;;;;;;;5.20;2.22;;;-0.40;99.90;;;;;;5036721;28;20051;-77
2021/12/23 00:49:06;;;;;;;6.07;2.78;;;-0.40;99.90;;;;;;5036417;28;20421;-77
2021/12/23 00:51:33;;;;;;;3.65;3.20;;;-0.40;99.90;;;;;;5044214;28;20041;-77
2021/12/23 00:54:04;;;;;;;11.55;6.00;;;-0.40;99.90;;;;;;5033823;28;20120;-77
2021/12/23 00:56:35;;;;;;;1.85;1.70;;;-0.40;99.90;;;;;;5029159;28;20033;-77
2021/12/23 00:59:09;;;;;;;6.18;2.05;;;-0.40;99.90;;;;;;5021713;28;20382;-77
2021/12/23 01:01:35;;;;;;;10.15;3.88;;;-0.30;99.90;;;;;;5035530;28;20436;-77
2021/12/23 01:04:01;;;;;;;4.35;2.95;;;-0.30;99.90;;;;;;5037782;28;20090;-77
2021/12/23 01:06:27;;;;;;;4.55;3.38;;;-0.30;99.90;;;;;;5014955;28;20155;-77
2021/12/23 01:08:52;;;;;;;3.25;2.55;;;-0.30;99.90;;;;;;5038848;28;20068;-77
2021/12/23 01:11:18;;;;;;;4.97;2.90;;;-0.30;99.90;;;;;;5016072;28;20045;-77
2021/12/23 01:13:59;;;;;;;8.70;5.35;;;-0.30;99.90;;;;;;5037667;28;20044;-76
2021/12/23 01:16:37;;;;;;;4.80;3.35;;;-0.30;99.90;;;;;;5035857;28;20038;-77
2021/12/23 01:19:10;;;;;;;2.67;2.22;;;-0.30;99.90;;;;;;5019409;28;20048;-77
2021/12/23 01:21:36;;;;;;;3.15;2.10;;;-0.30;99.90;;;;;;5038877;28;20044;-77
2021/12/23 01:24:02;;;;;;;10.85;6.57;;;-0.30;99.90;;;;;;5040592;28;20033;-77
2021/12/23 01:26:28;;;;;;;3.17;2.92;;;-0.20;99.90;;;;;;5033904;28;20090;-77
2021/12/23 01:28:57;;;;;;;6.45;4.57;;;-0.20;99.90;;;;;;5039038;28;20651;-77
2021/12/23 01:31:26;;;;;;;12.30;5.10;;;-0.20;99.90;;;;;;5036458;28;20042;-77
2021/12/23 01:33:53;;;;;;;14.07;6.32;;;-0.10;99.90;;;;;;5042164;28;20386;-76
2021/12/23 01:36:19;;;;;;;8.73;5.78;;;-0.10;99.90;;;;;;5033280;28;20269;-77
2021/12/23 01:38:45;;;;;;;12.38;6.20;;;0.00;99.90;;;;;;5025577;28;20037;-77
2021/12/23 01:41:11;;;;;;;15.15;7.53;;;0.00;99.90;;;;;;5023969;28;20116;-77
2021/12/23 01:43:37;;;;;;;13.32;6.47;;;0.00;99.90;;;;;;5037714;28;20080;-76
2021/12/23 01:46:03;;;;;;;10.23;7.32;;;0.00;99.90;;;;;;5025724;28;20502;-77
2021/12/23 01:48:28;;;;;;;2.72;2.45;;;-0.10;99.90;;;;;;5037111;28;20409;-77
2021/12/23 01:50:54;;;;;;;13.30;6.00;;;-0.10;99.90;;;;;;5034039;28;20092;-77
2021/12/23 01:53:20;;;;;;;13.95;6.43;;;-0.10;99.90;;;;;;5030290;28;20103;-76
2021/12/23 01:55:47;;;;;;;17.30;8.27;;;-0.10;99.90;;;;;;5071773;28;20087;-77
2021/12/23 01:58:13;;;;;;;5.78;4.40;;;-0.20;99.90;;;;;;5034071;28;20040;-77
2021/12/23 02:00:43;;;;;;;11.20;6.88;;;-0.20;99.90;;;;;;5071067;28;20032;-76
2021/12/23 02:03:10;;;;;;;9.18;6.45;;;-0.20;99.90;;;;;;5020409;28;20041;-76
2021/12/23 02:05:35;;;;;;;13.90;8.00;;;-0.20;99.90;;;;;;5042256;28;20041;-77
2021/12/23 02:08:02;;;;;;;6.28;3.75;;;-0.20;99.90;;;;;;5039689;28;20060;-75
2021/12/23 02:10:28;;;;;;;9.18;5.28;;;-0.20;99.90;;;;;;5035653;28;20045;-77
2021/12/23 02:12:55;;;;;;;4.40;3.30;;;-0.20;99.90;;;;;;5064548;28;20037;-77
2021/12/23 02:15:21;;;;;;;2.65;2.20;;;-0.20;99.90;;;;;;5043389;28;20136;-77
2021/12/23 02:17:48;;;;;;;0.60;0.60;;;-0.20;99.90;;;;;;5041268;28;20187;-77
2021/12/23 02:20:18;;;;;;;1.17;1.15;;;-0.20;99.90;;;;;;5042807;28;20401;-77
2021/12/23 02:22:44;;;;;;;4.93;4.05;;;-0.20;99.90;;;;;;5037402;28;20074;-77
2021/12/23 02:25:11;;;;;;;4.28;3.22;;;-0.20;99.90;;;;;;5061864;28;20072;-77
2021/12/23 02:27:38;;;;;;;5.18;2.97;;;-0.20;99.90;;;;;;5032546;28;20049;-77
2021/12/23 02:30:08;;;;;;;28.77;4.93;;;-0.20;99.90;;;;;;5036930;28;20051;-77
2021/12/23 02:32:38;;;;;;;4.45;3.28;;;-0.30;99.90;;;;;;5034895;28;20055;-77
2021/12/23 02:35:05;;;;;;;1.75;1.65;;;-0.20;99.90;;;;;;5037895;28;20040;-77
2021/12/23 02:37:31;;;;;;;7.22;3.63;;;-0.30;99.90;;;;;;5071526;28;20079;-77
2021/12/23 02:39:57;;;;;;;7.15;4.75;;;-0.30;99.90;;;;;;5034381;28;20068;-77
2021/12/23 02:42:24;;;;;;;6.40;4.03;;;-0.30;99.90;;;;;;5031487;28;20064;-77
2021/12/23 02:44:53;;;;;;;6.18;4.70;;;-0.30;99.90;;;;;;5027501;28;20068;-77
2021/12/23 02:47:19;;;;;;;6.25;3.42;;;-0.30;99.90;;;;;;5036908;28;20524;-77
2021/12/23 02:49:45;;;;;;;2.75;2.53;;;-0.30;99.90;;;;;;5036607;28;20079;-77
2021/12/23 02:52:11;;;;;;;10.65;6.32;;;-0.30;99.90;;;;;;5034463;28;20041;-77
2021/12/23 02:54:37;;;;;;;7.72;4.72;;;-0.30;99.90;;;;;;5030662;28;20528;-77
2021/12/23 02:57:03;;;;;;;10.48;5.97;;;-0.20;99.90;;;;;;5051817;28;20087;-77
2021/12/23 02:59:28;;;;;;;12.65;6.82;;;-0.30;99.90;;;;;;5040323;28;20036;-77
2021/12/23 03:01:54;;;;;;;6.80;5.20;;;-0.30;99.90;;;;;;5036673;28;20041;-77
2021/12/23 03:04:21;;;;;;;7.50;5.10;;;-0.20;99.90;;;;;;5034715;28;20496;-77
2021/12/23 03:06:47;;;;;;;3.80;3.45;;;-0.30;99.90;;;;;;5063243;28;20122;-77
2021/12/23 03:09:13;;;;;;;10.27;6.30;;;-0.30;99.90;;;;;;5034850;28;20049;-77
2021/12/23 03:11:40;;;;;;;8.38;5.38;;;-0.20;99.90;;;;;;5024283;28;20041;-77
2021/12/23 03:14:07;;;;;;;10.82;6.15;;;-0.20;99.90;;;;;;5023354;28;20045;-76
2021/12/23 03:16:36;;;;;;;14.13;7.97;;;-0.20;99.90;;;;;;5038126;28;20065;-77
2021/12/23 03:19:02;;;;;;;13.13;8.23;;;-0.20;99.90;;;;;;5015549;28;20571;-77
2021/12/23 03:21:28;;;;;;;6.13;3.55;;;-0.20;99.90;;;;;;5033863;28;20527;-77
2021/12/23 03:23:54;;;;;;;12.75;7.63;;;-0.20;99.90;;;;;;5023896;28;20040;-76
2021/12/23 03:26:20;;;;;;;12.43;7.38;;;-0.20;99.90;;;;;;5020074;28;20037;-76
2021/12/23 03:28:46;;;;;;;12.43;7.55;;;-0.20;99.90;;;;;;5039018;28;20564;-77
2021/12/23 03:31:12;;;;;;;12.32;7.47;;;-0.20;99.90;;;;;;5069471;28;20110;-77
2021/12/23 03:33:38;;;;;;;10.32;6.88;;;-0.20;99.90;;;;;;5036484;28;20045;-77
2021/12/23 03:36:04;;;;;;;12.23;6.85;;;-0.20;99.90;;;;;;5019538;28;20080;-76
2021/12/23 03:38:30;;;;;;;9.07;6.05;;;-0.20;99.90;;;;;;5063045;28;20497;-77
2021/12/23 03:40:56;;;;;;;7.45;4.25;;;-0.20;99.90;;;;;;5036873;28;20061;-77
2021/12/23 03:43:22;;;;;;;7.80;5.60;;;-0.20;99.90;;;;;;5035829;28;20067;-76
2021/12/23 03:45:50;;;;;;;11.75;6.05;;;-0.20;99.90;;;;;;5022834;28;20052;-77
2021/12/23 03:48:17;;;;;;;16.50;5.75;;;-0.20;99.90;;;;;;5019891;28;20037;-77
2021/12/23 03:50:44;;;;;;;7.63;4.68;;;-0.20;99.90;;;;;;5037643;28;20514;-77
2021/12/23 03:53:10;;;;;;;11.27;6.47;;;-0.20;99.90;;;;;;5037031;28;20421;-77
2021/12/23 03:55:36;;;;;;;7.38;5.10;;;-0.20;99.90;;;;;;5032247;28;20053;-77
2021/12/23 03:58:02;;;;;;;15.02;7.30;;;-0.20;99.90;;;;;;5036327;28;20414;-77
2021/12/23 04:00:29;;;;;;;3.65;3.33;;;-0.20;99.90;;;;;;5039426;28;20064;-77
2021/12/23 04:02:55;;;;;;;12.20;7.57;;;-0.20;99.90;;;;;;5037273;28;20488;-77
2021/12/23 04:05:21;;;;;;;7.00;4.15;;;-0.20;99.90;;;;;;5039843;28;20521;-77
2021/12/23 04:07:47;;;;;;;7.85;4.20;;;-0.20;99.90;;;;;;5041785;28;20072;-77
2021/12/23 04:10:16;;;;;;;10.38;6.13;;;-0.20;99.90;;;;;;5063197;28;20072;-77
2021/12/23 04:12:44;;;;;;;12.80;7.85;;;-0.20;99.90;;;;;;5033649;28;20041;-76
2021/12/23 04:15:10;;;;;;;6.95;4.45;;;-0.20;99.90;;;;;;5032408;28;20492;-76
2021/12/23 04:17:36;;;;;;;8.90;5.55;;;-0.10;99.90;;;;;;5032904;28;20037;-77
2021/12/23 04:20:17;;;;;;;9.30;3.25;;;-0.10;99.90;;;;;;5033676;28;20128;-76
2021/12/23 04:22:44;;;;;;;8.73;4.63;;;-0.10;99.90;;;;;;5017234;28;20041;-76
2021/12/23 04:25:11;;;;;;;3.90;3.38;;;-0.10;99.90;;;;;;5035355;28;20558;-76
2021/12/23 04:27:37;;;;;;;8.10;4.80;;;-0.10;99.90;;;;;;5030991;28;20059;-77
2021/12/23 04:30:06;;;;;;;5.45;4.38;;;0.00;99.90;;;;;;5068308;28;20046;-76
2021/12/23 04:32:32;;;;;;;20.20;8.18;;;0.00;99.90;;;;;;5034116;28;20087;-77
2021/12/23 04:34:57;;;;;;;8.05;5.13;;;0.00;99.90;;;;;;5016364;28;20068;-76
2021/12/23 04:37:23;;;;;;;8.95;5.40;;;0.00;99.90;;;;;;5020866;28;20168;-77
2021/12/23 04:39:49;;;;;;;7.63;5.30;;;0.00;99.90;;;;;;5018230;28;20485;-76
2021/12/23 04:42:14;;;;;;;9.93;6.18;;;0.00;99.90;;;;;;5024167;28;20029;-76
2021/12/23 04:44:40;;;;;;;18.27;5.18;;;0.00;99.90;;;;;;5014377;28;20038;-76
2021/12/23 04:47:06;;;;;;;10.52;6.13;;;0.00;99.90;;;;;;5030979;28;20917;-77
2021/12/23 04:49:32;;;;;;;14.15;8.90;;;0.10;99.90;;;;;;5031335;28;20042;-77
2021/12/23 04:51:57;;;;;;;9.32;5.05;;;0.10;99.90;;;;;;5030294;28;20113;-76
2021/12/23 04:54:23;;;;;;;11.80;5.15;;;0.10;99.90;;;;;;5054912;28;20037;-76
2021/12/23 04:56:49;;;;;;;13.43;7.82;;;0.10;99.90;;;;;;5037209;28;20053;-76
2021/12/23 04:59:15;;;;;;;13.07;7.63;;;0.10;99.90;;;;;;5042198;28;20048;-76
2021/12/23 05:01:40;;;;;;;8.15;5.80;;;0.10;99.90;;;;;;5025621;28;20098;-76
2021/12/23 05:04:06;;;;;;;12.95;7.10;;;0.10;99.90;;;;;;5038689;28;20528;-76
2021/12/23 05:06:32;;;;;;;13.35;4.65;;;0.10;99.90;;;;;;5033172;28;20082;-77
2021/12/23 05:08:58;;;;;;;8.25;5.00;;;0.10;99.90;;;;;;5030652;28;20065;-76
2021/12/23 05:11:23;;;;;;;7.45;4.53;;;0.10;99.90;;;;;;5040038;28;20037;-77
2021/12/23 05:13:49;;;;;;;11.63;5.43;;;0.10;99.90;;;;;;5024257;28;20067;-77
2021/12/23 05:16:17;;;;;;;17.50;10.35;;;0.10;99.90;;;;;;5017816;28;20509;-76
2021/12/23 05:18:42;;;;;;;13.80;7.93;;;0.10;99.90;;;;;;5040035;28;20123;-77
2021/12/23 05:21:08;;;;;;;20.33;9.00;;;0.20;99.90;;;;;;5034596;28;20112;-76
2021/12/23 05:23:34;;;;;;;10.38;5.70;;;0.20;99.90;;;;;;5022702;28;20038;-77
2021/12/23 05:26:00;;;;;;;7.72;5.18;;;0.20;99.90;;;;;;5037654;28;20041;-77
2021/12/23 05:28:25;;;;;;;10.68;4.95;;;0.20;99.90;;;;;;5060338;28;20094;-77
2021/12/23 05:30:51;;;;;;;14.93;7.00;;;0.20;99.90;;;;;;5034856;28;20036;-77
2021/12/23 05:33:17;;;;;;;5.30;3.50;;;0.20;99.90;;;;;;5024169;28;20052;-77
2021/12/23 05:35:44;;;;;;;6.93;4.15;;;0.20;99.90;;;;;;5026165;28;20037;-77
2021/12/23 05:38:09;;;;;;;3.20;2.55;;;0.20;99.90;;;;;;5035726;28;20379;-77
2021/12/23 05:40:35;;;;;;;5.55;3.60;;;0.20;99.90;;;;;;5017848;28;20063;-77
2021/12/23 05:43:03;;;;;;;5.93;4.32;;;0.20;99.90;;;;;;5027777;28;20028;-77
2021/12/23 05:45:29;;;;;;;7.55;4.82;;;0.20;99.90;;;;;;5039348;28;20114;-77
2021/12/23 05:47:55;;;;;;;4.93;3.35;;;0.20;99.90;;;;;;5037425;28;20041;-77
2021/12/23 05:50:25;;;;;;;8.93;6.03;;;0.20;99.90;;;;;;5072844;28;20032;-77
2021/12/23 05:52:52;;;;;;;10.18;3.90;;;0.20;99.90;;;;;;5024965;28;20122;-77
2021/12/23 05:55:18;;;;;;;4.55;4.07;;;0.30;99.90;;;;;;5037866;28;20052;-77
2021/12/23 05:57:44;;;;;;;3.63;2.78;;;0.30;99.90;;;;;;5026625;28;20098;-77
2021/12/23 06:00:39;;;;;;;9.40;6.10;;;0.30;99.90;;;;;;5063972;28;20033;-77
2021/12/23 06:03:05;;;;;;;15.18;9.02;;;0.30;99.90;;;;;;5039979;28;20103;-77
2021/12/23 06:05:31;;;;;;;14.88;9.13;;;0.30;99.90;;;;;;5040758;28;20044;-77
2021/12/23 06:07:57;;;;;;;14.93;8.50;;;0.30;99.90;;;;;;5036571;28;20404;-77
2021/12/23 06:10:23;;;;;;;17.10;7.00;;;0.30;99.90;;;;;;5067689;28;20144;-77
2021/12/23 06:12:49;;;;;;;10.52;5.93;;;0.30;99.90;;;;;;5037383;28;21540;-76
2021/12/23 06:15:16;;;;;;;13.63;7.55;;;0.30;99.90;;;;;;5036431;28;20102;-76
2021/12/23 06:17:42;;;;;;;14.85;7.28;;;0.30;99.90;;;;;;5070718;28;20047;-77
2021/12/23 06:20:09;;;;;;;16.38;8.23;;;0.30;99.90;;;;;;5025533;28;20041;-77
2021/12/23 06:22:36;;;;;;;12.02;7.03;;;0.30;99.90;;;;;;5034364;28;20068;-77
2021/12/23 06:25:05;;;;;;;15.38;8.82;;;0.30;99.90;;;;;;5020665;28;20157;-77
2021/12/23 06:27:32;;;;;;;9.13;5.63;;;0.30;99.90;;;;;;5022718;28;20090;-77
2021/12/23 06:29:57;;;;;;;10.85;6.78;;;0.30;99.90;;;;;;5067504;28;20572;-77
2021/12/23 06:32:23;;;;;;;13.77;7.60;;;0.30;99.90;;;;;;5036940;28;20167;-77
2021/12/23 06:34:49;;;;;;;13.40;7.78;;;0.30;99.90;;;;;;5029005;28;20053;-77
2021/12/23 06:37:15;;;;;;;13.27;6.90;;;0.30;99.90;;;;;;5023766;28;20432;-77
2021/12/23 06:39:41;;;;;;;12.57;8.18;;;0.30;99.90;;;;;;5034391;28;20044;-77
2021/12/23 06:42:07;;;;;;;8.68;6.32;;;0.30;99.90;;;;;;5037757;28;20084;-77
2021/12/23 06:44:34;;;;;;;11.25;6.40;;;0.40;99.90;;;;;;5026061;28;20124;-77
2021/12/23 06:46:59;;;;;;;14.85;8.32;;;0.40;99.90;;;;;;5037416;28;20047;-77
2021/12/23 06:49:26;;;;;;;10.40;6.38;;;0.40;99.90;;;;;;5025817;28;20116;-77
2021/12/23 06:51:53;;;;;;;9.95;6.97;;;0.40;99.90;;;;;;5034489;28;20049;-77
2021/12/23 06:54:19;;;;;;;13.68;7.40;;;0.40;99.90;;;;;;5024107;28;20073;-77
2021/12/23 06:56:46;;;;;;;4.72;4.25;;;0.40;99.90;;;;;;5076563;28;20397;-77
2021/12/23 06:59:15;;;;;;;7.68;4.97;;;0.40;99.90;;;;;;5030123;28;20045;-77
2021/12/23 07:01:42;;;;;;;10.63;6.90;;;0.40;99.90;;;;;;5036742;28;20055;-77
2021/12/23 07:04:16;;;;;;;13.75;7.15;;;0.40;99.90;;;;;;5023919;28;20059;-77
2021/12/23 07:06:55;;;;;;;22.13;13.55;;;0.40;99.90;;;;;;5028725;28;20041;-77
2021/12/23 07:09:21;;;;;;;12.07;7.15;;;0.40;99.90;;;;;;5048385;28;20044;-77
2021/12/23 07:11:47;;;;;;;11.45;7.10;;;0.40;99.90;;;;;;5040556;28;20128;-77
2021/12/23 07:14:12;;;;;;;13.60;6.68;;;0.40;99.90;;;;;;5034525;28;20378;-77
2021/12/23 07:16:40;;;;;;;15.75;7.25;;;0.40;99.90;;;;;;5037181;28;20044;-77
2021/12/23 07:19:06;;;;;;;15.52;6.60;;;0.40;99.90;;;;;;5068436;28;20098;-77
2021/12/23 07:21:31;;;;;;;11.25;7.32;;;0.40;99.90;;;;;;5025411;28;20043;-77
2021/12/23 07:23:57;;;;;;;15.57;8.65;;;0.40;99.90;;;;;;5061428;28;20498;-77
2021/12/23 07:26:23;;;;;;;9.27;5.28;;;0.40;99.90;;;;;;5038315;28;20045;-77
2021/12/23 07:28:48;;;;;;;15.85;8.35;;;0.40;99.90;;;;;;5068643;28;20044;-77
2021/12/23 07:31:14;;;;;;;12.50;7.30;;;0.40;99.90;;;;;;5022444;28;20045;-77
2021/12/23 07:33:40;;;;;;;9.73;6.25;;;0.40;99.90;;;;;;5018761;28;20049;-77
2021/12/23 07:36:06;;;;;;;7.68;4.47;;;0.40;99.90;;;;;;5019673;28;20037;-77
2021/12/23 07:38:33;;;;;;;15.82;9.35;;;0.40;99.90;;;;;;5036846;28;20040;-77
2021/12/23 07:40:59;;;;;;;8.00;5.93;;;0.40;99.90;;;;;;5037154;28;20049;-77
2021/12/23 07:46:00;;;;;;;13.15;4.88;;;0.40;99.90;;;;;;5026981;28;20087;-77
2021/12/23 07:48:26;;;;;;;10.25;6.13;;;0.40;99.90;;;;;;5024579;28;20259;-77
2021/12/23 07:50:54;;;;;;;10.45;7.50;;;0.40;99.90;;;;;;5025733;28;20047;-77
2021/12/23 07:53:20;;;;;;;22.75;11.10;;;0.40;99.90;;;;;;5037408;28;20128;-78
2021/12/23 07:55:46;;;;;;;17.40;9.70;;;0.40;99.90;;;;;;5035230;28;20131;-77
2021/12/23 07:58:12;;;;;;;10.52;5.30;;;0.40;99.90;;;;;;5032175;28;20112;-78
2021/12/23 08:00:37;;;;;;;14.95;7.65;;;0.40;99.90;;;;;;5072473;28;20524;-78
2021/12/23 08:03:03;;;;;;;7.40;4.82;;;0.40;99.90;;;;;;5022918;28;20040;-77
2021/12/23 08:05:36;;;;;;;14.80;8.85;;;0.40;99.90;;;;;;5051480;28;20048;-77
2021/12/23 08:08:03;;;;;;;17.00;7.68;;;0.40;99.90;;;;;;5060128;28;20053;-77
2021/12/23 08:10:29;;;;;;;14.93;9.50;;;0.40;99.90;;;;;;5056036;28;20041;-77
2021/12/23 08:12:55;;;;;;;16.70;8.77;;;0.40;99.90;;;;;;5040553;28;20041;-77
2021/12/23 08:15:21;;;;;;;7.50;4.72;;;0.40;99.90;;;;;;5030915;28;20416;-77
2021/12/23 08:17:47;;;;;;;32.85;5.90;;;0.40;99.90;;;;;;5021035;28;20034;-77
2021/12/23 08:20:14;;;;;;;9.07;5.97;;;0.40;99.90;;;;;;5021865;28;20042;-78
2021/12/23 08:22:41;;;;;;;7.68;4.78;;;0.40;99.90;;;;;;5032303;28;20075;-77
2021/12/23 08:25:08;;;;;;;11.27;6.95;;;0.40;99.90;;;;;;5072395;28;20417;-77
2021/12/23 08:27:34;;;;;;;10.60;5.57;;;0.40;99.90;;;;;;5022293;28;20449;-77
2021/12/23 08:30:04;;;;;;;6.45;4.25;;;0.40;99.90;;;;;;5036407;28;20050;-78
2021/12/23 08:32:30;;;;;;;9.85;6.00;;;0.40;99.90;;;;;;5024608;28;20044;-77
2021/12/23 08:34:56;;;;;;;27.48;16.60;;;0.40;99.90;;;;;;5027042;28;20045;-77
2021/12/23 08:37:21;;;;;;;28.25;6.50;;;0.40;99.90;;;;;;5053321;28;20041;-77
2021/12/23 08:39:48;;;;;;;7.60;5.95;;;0.40;99.90;;;;;;5024625;28;20048;-77
2021/12/23 08:42:14;;;;;;;16.33;7.93;;;0.40;99.90;;;;;;5034471;28;20405;-77
2021/12/23 08:44:40;;;;;;;22.67;11.30;;;0.40;99.90;;;;;;5042355;28;20041;-77
2021/12/23 08:47:07;;;;;;;13.80;8.48;;;0.40;99.90;;;;;;5039374;28;20049;-77
2021/12/23 08:49:33;;;;;;;12.25;8.20;;;0.40;99.90;;;;;;5042838;28;20045;-77
2021/12/23 08:51:59;;;;;;;19.13;6.75;;;0.40;99.90;;;;;;5029362;28;20154;-77
2021/12/23 08:54:25;;;;;;;16.38;8.82;;;0.40;99.90;;;;;;5036339;28;20489;-77
2021/12/23 08:56:51;;;;;;;11.27;5.82;;;0.40;99.90;;;;;;5037365;28;20369;-78
2021/12/23 08:59:17;;;;;;;12.00;5.97;;;0.40;99.90;;;;;;5071632;28;20065;-77
2021/12/23 09:01:43;;;;;;;18.05;8.55;;;0.40;99.90;;;;;;5040283;28;20496;-77
2021/12/23 09:04:09;;;;;;;13.75;8.10;;;0.40;99.90;;;;;;5039453;28;20366;-77
2021/12/23 09:06:34;;;;;;;13.70;7.78;;;0.40;99.90;;;;;;5030809;28;20048;-77
2021/12/23 09:09:00;;;;;;;1.63;1.52;;;0.40;99.90;;;;;;5030754;28;20041;-77
2021/12/23 09:11:26;;;;;;;23.02;10.50;;;0.40;99.90;;;;;;5039981;28;20045;-77
2021/12/23 09:13:53;;;;;;;13.13;7.40;;;0.40;99.90;;;;;;5036932;28;20049;-77
2021/12/23 09:16:18;;;;;;;16.17;7.13;;;0.40;99.90;;;;;;5061994;28;20045;-77
2021/12/23 09:18:44;;;;;;;10.75;6.78;;;0.40;99.90;;;;;;5024843;28;20037;-77
2021/12/23 09:21:12;;;;;;;8.45;6.22;;;0.50;99.90;;;;;;5027370;28;20037;-77
2021/12/23 09:23:39;;;;;;;9.98;6.57;;;0.50;99.90;;;;;;5029341;28;20044;-77
2021/12/23 09:26:09;;;;;;;12.18;6.88;;;0.50;99.90;;;;;;5045902;28;20041;-77
2021/12/23 09:33:48;;;;;;;23.45;12.38;;;0.50;99.90;;;;;;5042937;28;20041;-77
2021/12/23 09:36:14;;;;;;;7.35;4.88;;;0.50;99.90;;;;;;5085285;28;20397;-77
2021/12/23 09:38:40;;;;;;;19.60;8.32;;;0.50;99.90;;;;;;5035446;28;20033;-77
2021/12/23 09:41:12;;;;;;;11.05;5.45;;;0.50;99.90;;;;;;5022718;28;20041;-77
2021/12/23 09:43:39;;;;;;;12.60;6.93;;;0.50;99.90;;;;;;5041589;28;20037;-77
2021/12/23 09:46:09;;;;;;;16.25;7.97;;;0.50;99.90;;;;;;5032836;28;20044;-77
2021/12/23 09:48:35;;;;;;;24.40;12.63;;;0.50;99.90;;;;;;5039417;28;20064;-77
2021/12/23 09:51:04;;;;;;;12.48;4.07;;;0.50;99.90;;;;;;5056375;28;20033;-77
2021/12/23 09:53:31;;;;;;;5.88;4.15;;;0.50;99.90;;;;;;5016634;28;20095;-77
2021/12/23 09:55:59;;;;;;;11.88;6.03;;;0.50;99.90;;;;;;5027887;28;20041;-77
2021/12/23 09:58:25;;;;;;;10.20;7.32;;;0.50;99.90;;;;;;5016082;28;20103;-77
2021/12/23 10:00:51;;;;;;;14.50;9.40;;;0.50;99.90;;;;;;5055171;28;20087;-77
2021/12/23 10:03:20;;;;;;;3.67;3.38;;;0.50;99.90;;;;;;5035764;28;20342;-77
2021/12/23 10:05:47;;;;;;;11.40;6.72;;;0.60;99.90;;;;;;5069422;28;20048;-77
2021/12/23 10:08:14;;;;;;;16.48;8.25;;;0.60;99.90;;;;;;5073629;28;20055;-77
2021/12/23 10:10:55;;;;;;;4.97;3.80;;;0.60;99.90;;;;;;5018299;28;20041;-77
2021/12/23 10:38:15;;;;;;;21.33;11.13;;;0.70;99.90;;;;;;5070561;28;20502;-77
2021/12/23 10:40:48;;;;;;;11.93;5.82;;;0.70;99.90;;;;;;5032427;28;20040;-78
2021/12/23 10:43:27;;;;;;;19.75;8.60;;;0.70;99.90;;;;;;5071230;28;20164;-77
2021/12/23 10:45:58;;;;;;;18.85;11.00;;;0.70;99.90;;;;;;5035620;28;20077;-77
2021/12/23 10:48:31;;;;;;;27.33;13.73;;;0.70;99.90;;;;;;5057112;28;20417;-77
2021/12/23 10:51:05;;;;;;;;;;;0.70;99.90;;;;;;5067337;28;20747;-78
2021/12/23 10:53:47;;;;;;;43.10;17.65;;;0.70;99.90;;;;;;5038500;28;20018;-77
2021/12/23 10:59:16;;;;;;;28.73;12.57;;;0.60;99.90;;;;;;5039228;28;20036;-77
2021/12/23 11:02:10;;;;;;;23.98;12.90;;;0.60;99.90;;;;;;5037488;28;20563;-78
2021/12/23 11:05:19;;;;;;;33.92;13.93;;;0.60;99.90;;;;;;5022327;28;20052;-78
2021/12/23 11:27:37;;;;;;;33.42;15.95;;;0.70;99.90;;;;;;5035741;28;20132;-78
2021/12/23 11:35:48;;;;;;;23.08;12.75;;;0.70;99.90;;;;;;5021036;28;20463;-78
2021/12/23 11:38:24;;;;;;;40.20;16.63;;;0.70;99.90;;;;;;5037203;28;20041;-78
2021/12/23 11:40:54;;;;;;;18.42;11.20;;;0.80;99.90;;;;;;5059336;28;20081;-78
2021/12/23 11:45:55;;;;;;;35.55;14.23;;;0.70;99.90;;;;;;5029734;28;20043;-78
2021/12/23 11:48:21;;;;;;;22.65;11.20;;;0.70;99.90;;;;;;5019334;28;20037;-77
2021/12/23 11:50:55;;;;;;;28.63;13.23;;;0.70;99.90;;;;;;5067070;28;20055;-78
2021/12/23 11:53:22;;;;;;;2.47;2.10;;;0.80;99.90;;;;;;5010730;28;20458;-77
2021/12/23 11:55:48;;;;;;;26.88;10.63;;;0.80;99.90;;;;;;5032531;28;20052;-78
2021/12/23 11:58:15;;;;;;;29.42;13.60;;;0.80;99.90;;;;;;5028073;28;20037;-79
2021/12/23 12:00:42;;;;;;;23.27;13.27;;;0.80;99.90;;;;;;5024071;28;20379;-78
2021/12/23 12:03:10;;;;;;;28.08;13.63;;;0.80;99.90;;;;;;5072206;28;20032;-79
2021/12/23 12:05:36;;;;;;;31.80;16.65;;;0.80;99.90;;;;;;5031174;28;20053;-79
2021/12/23 12:08:06;;;;;;;28.15;13.90;;;0.80;99.90;;;;;;5022531;28;20045;-79
2021/12/23 12:10:34;;;;;;;20.25;9.68;;;0.80;99.90;;;;;;5035531;28;20086;-79
2021/12/23 12:13:09;;;;;;;9.48;7.13;;;0.90;99.90;;;;;;5035446;28;20055;-79
2021/12/23 12:15:49;;;;;;;11.18;6.75;;;0.90;99.90;;;;;;5035983;28;20071;-79
2021/12/23 12:18:23;;;;;;;12.55;7.93;;;0.90;99.90;;;;;;5045665;28;20354;-79
2021/12/23 12:20:59;;;;;;;24.33;12.75;;;0.90;99.90;;;;;;5029584;28;20041;-79
2021/12/23 12:23:40;;;;;;;14.55;9.40;;;1.00;99.90;;;;;;5037166;28;20404;-79
2021/12/23 12:26:12;;;;;;;28.17;15.88;;;1.00;99.90;;;;;;5054544;28;20128;-79
2021/12/23 12:28:39;;;;;;;30.17;14.32;;;1.00;99.90;;;;;;5036117;28;20041;-79
2021/12/23 12:31:11;;;;;;;21.05;9.80;;;1.00;99.90;;;;;;5032789;28;20128;-79
2021/12/23 12:33:40;;;;;;;21.05;9.98;;;1.00;99.90;;;;;;5024733;28;20409;-79
2021/12/23 12:36:15;;;;;;;27.42;12.50;;;1.10;99.90;;;;;;5027867;28;20462;-79
2021/12/23 12:38:47;;;;;;;38.65;16.20;;;1.10;99.90;;;;;;5034059;28;20398;-77
2021/12/23 12:41:26;;;;;;;29.20;13.60;;;1.10;99.90;;;;;;5029063;28;20048;-77
2021/12/23 12:44:03;;;;;;;17.77;8.85;;;1.10;99.90;;;;;;5042470;28;20048;-77
2021/12/23 12:49:11;;;;;;;17.35;10.32;;;1.10;99.90;;;;;;5072837;28;20068;-77
2021/12/23 12:51:41;;;;;;;16.85;9.13;;;1.10;99.90;;;;;;5034034;28;20037;-77
2021/12/23 12:54:16;;;;;;;21.80;9.57;;;1.10;99.90;;;;;;5074962;28;20059;-77
2021/12/23 12:56:48;;;;;;;15.90;7.47;;;1.10;99.90;;;;;;5040975;28;20037;-78
2021/12/23 12:59:16;;;;;;;40.55;7.97;;;1.20;99.90;;;;;;5053573;28;20064;-78
2021/12/23 13:01:49;;;;;;;22.85;10.02;;;1.20;99.90;;;;;;5038666;28;20049;-78
2021/12/23 13:04:35;;;;;;;15.93;6.85;;;1.20;99.90;;;;;;5068322;28;20056;-78
2021/12/23 13:07:23;;;;;;;17.58;11.00;;;1.20;99.90;;;;;;5020301;28;20048;-78
2021/12/23 13:10:31;;;;;;;42.38;18.92;;;1.20;99.90;;;;;;5047238;28;20142;-78
2021/12/23 13:13:04;;;;;;;25.50;12.32;;;1.20;99.90;;;;;;4990052;28;20046;-78
2021/12/23 13:15:35;;;;;;;31.45;13.93;;;1.20;99.90;;;;;;4999109;28;20495;-78
2021/12/23 13:18:09;;;;;;;27.38;12.85;;;1.20;99.90;;;;;;5023658;28;20416;-79
2021/12/23 13:20:40;;;;;;;5.40;3.78;;;1.10;99.90;;;;;;5048282;28;20124;-80
2021/12/23 13:23:12;;;;;;;8.05;4.05;;;1.20;99.90;;;;;;5059294;28;20464;-77
2021/12/23 13:25:51;;;;;;;4.43;3.85;;;1.20;99.90;;;;;;5033795;28;20109;-78
2021/12/23 13:28:31;;;;;;;19.60;11.30;;;1.20;99.90;;;;;;5023960;28;20045;-78
2021/12/23 13:30:58;;;;;;;24.95;9.38;;;1.20;99.90;;;;;;5026110;28;20045;-78
2021/12/23 13:33:24;;;;;;;33.15;13.27;;;1.20;99.90;;;;;;5029636;28;20060;-78
2021/12/23 13:35:50;;;;;;;20.27;9.18;;;1.10;99.90;;;;;;5043271;28;20037;-78
2021/12/23 13:38:42;;;;;;;41.17;13.80;;;1.10;99.90;;;;;;5039187;28;20045;-78
2021/12/23 13:41:38;;;;;;;27.40;11.75;;;1.10;99.90;;;;;;5038627;28;20041;-78
2021/12/23 13:44:21;;;;;;;6.68;3.50;;;1.10;99.90;;;;;;5038502;28;20123;-78
2021/12/23 13:47:21;;;;;;;5.53;4.45;;;1.10;99.90;;;;;;5036416;28;20040;-77
2021/12/23 13:49:54;;;;;;;10.52;5.13;;;1.20;99.90;;;;;;5041197;28;20053;-77
2021/12/23 13:52:29;;;;;;;23.13;11.65;;;1.10;99.90;;;;;;5027108;28;20037;-78
2021/12/23 13:54:59;;;;;;;10.32;5.25;;;1.20;99.90;;;;;;5064982;28;20144;-78
2021/12/23 13:57:26;;;;;;;7.25;5.25;;;1.20;99.90;;;;;;5036542;28;20046;-78
2021/12/23 13:59:53;;;;;;;3.65;3.33;;;1.20;99.90;;;;;;5030479;28;20037;-78
2021/12/23 14:02:25;;;;;;;18.23;7.85;;;1.20;99.90;;;;;;5038421;28;20052;-78
2021/12/23 14:05:03;;;;;;;22.08;11.27;;;1.20;99.90;;;;;;5040398;28;20045;-78